Terminal Aerodrome Forecast
Issued by NWS

Home | Current Version | Previous Version | Text Only | Print | Product List | Glossary On
Versions: 1 2 3 4 5 6 7 8 9 10 11 12 13 14 15 16 17 18 19
000
FTUS44 KLIX 240520
TAFMCB
TAF
KMCB 240520Z 2406/2506 02011G19KT 2SM +TSRA BR FEW008 BKN035CB
      OVC045
     FM240900 00000KT P6SM FEW008 SCT250
      TEMPO 2409/2413 4SM BR
     FM241300 00000KT P6SM FEW010 SCT200 PROB30 2415/2418 4SM -TSRA
      BKN015CB
     FM241800 00000KT P6SM SCT025 BKN100 PROB30 2418/2421 4SM -TSRA
      BKN025CB
     FM250000 00000KT P6SM SCT025 BKN050 PROB30 2500/2506 4SM -TSRA
      BR BKN015CB BKN020 BKN025=

USA.gov is the U.S. government's official web portal to all federal, state and local government web resources and services.